sensor_id;sensor_type;location;lat;lon;timestamp;temperature;humidity
36214;DHT22;37652;50.400;30.628;2023-01-16T00:01:43;-1.20;90.20
36214;DHT22;37652;50.400;30.628;2023-01-16T00:03:44;-1.20;90.20
36214;DHT22;37652;50.400;30.628;2023-01-16T00:05:45;-1.20;90.20
36214;DHT22;37652;50.400;30.628;2023-01-16T00:07:46;-1.10;90.50
36214;DHT22;37652;50.400;30.628;2023-01-16T00:09:46;-1.10;90.20
36214;DHT22;37652;50.400;30.628;2023-01-16T00:11:47;-1.10;90.30
36214;DHT22;37652;50.400;30.628;2023-01-16T00:13:48;-1.10;90.30
36214;DHT22;37652;50.400;30.628;2023-01-16T00:15:50;-1.10;90.30
36214;DHT22;37652;50.400;30.628;2023-01-16T00:17:51;-1.10;90.30
36214;DHT22;37652;50.400;30.628;2023-01-16T00:19:52;-1.10;90.30
36214;DHT22;37652;50.400;30.628;2023-01-16T00:21:52;-1.10;90.30
36214;DHT22;37652;50.400;30.628;2023-01-16T00:23:54;-1.10;90.30
36214;DHT22;37652;50.400;30.628;2023-01-16T00:25:55;-1.10;90.30
36214;DHT22;37652;50.400;30.628;2023-01-16T00:27:56;-1.00;90.40
36214;DHT22;37652;50.400;30.628;2023-01-16T00:29:57;-1.10;90.40
36214;DHT22;37652;50.400;30.628;2023-01-16T00:31:57;-1.10;91.00
36214;DHT22;37652;50.400;30.628;2023-01-16T00:33:58;-1.10;90.40
36214;DHT22;37652;50.400;30.628;2023-01-16T00:35:59;-1.00;90.40
36214;DHT22;37652;50.400;30.628;2023-01-16T00:38:00;-1.00;90.40
36214;DHT22;37652;50.400;30.628;2023-01-16T00:40:01;-1.00;90.40
36214;DHT22;37652;50.400;30.628;2023-01-16T00:42:01;-0.80;91.20
36214;DHT22;37652;50.400;30.628;2023-01-16T00:44:02;-1.00;90.40
36214;DHT22;37652;50.400;30.628;2023-01-16T00:46:03;-1.00;90.40
36214;DHT22;37652;50.400;30.628;2023-01-16T00:48:04;-1.00;90.40
36214;DHT22;37652;50.400;30.628;2023-01-16T00:50:06;-1.00;90.40
36214;DHT22;37652;50.400;30.628;2023-01-16T00:52:07;-1.00;90.50
36214;DHT22;37652;50.400;30.628;2023-01-16T00:54:07;-1.00;90.40
36214;DHT22;37652;50.400;30.628;2023-01-16T00:56:08;-0.90;90.40
36214;DHT22;37652;50.400;30.628;2023-01-16T00:58:09;-1.00;90.40
36214;DHT22;37652;50.400;30.628;2023-01-16T01:00:10;-0.90;90.50
36214;DHT22;37652;50.400;30.628;2023-01-16T01:02:12;-0.70;91.40
36214;DHT22;37652;50.400;30.628;2023-01-16T01:04:13;-0.90;90.30
36214;DHT22;37652;50.400;30.628;2023-01-16T01:06:13;-0.90;90.30
36214;DHT22;37652;50.400;30.628;2023-01-16T01:08:14;-0.90;90.30
36214;DHT22;37652;50.400;30.628;2023-01-16T01:10:15;-0.90;90.30
36214;DHT22;37652;50.400;30.628;2023-01-16T01:12:15;-0.90;90.30
36214;DHT22;37652;50.400;30.628;2023-01-16T01:14:16;-0.90;90.30
36214;DHT22;37652;50.400;30.628;2023-01-16T01:16:17;-0.80;90.40
36214;DHT22;37652;50.400;30.628;2023-01-16T01:18:17;-0.90;90.40
36214;DHT22;37652;50.400;30.628;2023-01-16T01:20:18;-0.90;90.40
36214;DHT22;37652;50.400;30.628;2023-01-16T01:22:19;-0.90;90.40
36214;DHT22;37652;50.400;30.628;2023-01-16T01:24:20;-0.90;90.40
36214;DHT22;37652;50.400;30.628;2023-01-16T01:26:20;-0.90;90.40
36214;DHT22;37652;50.400;30.628;2023-01-16T01:28:22;-0.90;90.40
36214;DHT22;37652;50.400;30.628;2023-01-16T01:30:22;-0.90;90.40
36214;DHT22;37652;50.400;30.628;2023-01-16T01:32:23;-0.90;90.50
36214;DHT22;37652;50.400;30.628;2023-01-16T01:34:24;-0.90;90.50
36214;DHT22;37652;50.400;30.628;2023-01-16T01:36:25;-0.90;90.50
36214;DHT22;37652;50.400;30.628;2023-01-16T01:38:25;-0.90;90.50
36214;DHT22;37652;50.400;30.628;2023-01-16T01:40:26;-0.90;90.60
36214;DHT22;37652;50.400;30.628;2023-01-16T01:42:27;-0.80;90.60
36214;DHT22;37652;50.400;30.628;2023-01-16T01:46:52;-0.80;90.60
36214;DHT22;37652;50.400;30.628;2023-01-16T01:49:23;-0.80;90.60
36214;DHT22;37652;50.400;30.628;2023-01-16T01:51:29;-0.80;90.60
36214;DHT22;37652;50.400;30.628;2023-01-16T01:53:46;-0.80;90.60
36214;DHT22;37652;50.400;30.628;2023-01-16T01:55:49;-0.80;90.70
36214;DHT22;37652;50.400;30.628;2023-01-16T01:57:55;-0.80;90.70
36214;DHT22;37652;50.400;30.628;2023-01-16T02:00:05;-0.80;90.60
36214;DHT22;37652;50.400;30.628;2023-01-16T02:02:10;-0.50;91.50
36214;DHT22;37652;50.400;30.628;2023-01-16T02:04:19;-0.80;90.60
36214;DHT22;37652;50.400;30.628;2023-01-16T02:06:32;-0.70;90.70
36214;DHT22;37652;50.400;30.628;2023-01-16T02:08:36;-0.70;90.70
36214;DHT22;37652;50.400;30.628;2023-01-16T02:10:39;-0.70;90.70
36214;DHT22;37652;50.400;30.628;2023-01-16T02:12:42;-0.70;90.70
36214;DHT22;37652;50.400;30.628;2023-01-16T02:14:45;-0.70;90.70
36214;DHT22;37652;50.400;30.628;2023-01-16T02:16:50;-0.70;90.70
36214;DHT22;37652;50.400;30.628;2023-01-16T02:19:22;-0.70;90.70
36214;DHT22;37652;50.400;30.628;2023-01-16T02:31:14;-0.60;90.60
36214;DHT22;37652;50.400;30.628;2023-01-16T02:41:08;-0.60;90.60
36214;DHT22;37652;50.400;30.628;2023-01-16T02:55:10;-0.50;90.60
36214;DHT22;37652;50.400;30.628;2023-01-16T02:57:17;-0.60;91.50
36214;DHT22;37652;50.400;30.628;2023-01-16T02:59:18;-0.50;90.70
36214;DHT22;37652;50.400;30.628;2023-01-16T03:01:19;-0.50;90.60
36214;DHT22;37652;50.400;30.628;2023-01-16T03:03:40;-0.50;90.70
36214;DHT22;37652;50.400;30.628;2023-01-16T03:05:46;-0.50;90.60
36214;DHT22;37652;50.400;30.628;2023-01-16T03:08:23;-0.50;90.90
36214;DHT22;37652;50.400;30.628;2023-01-16T03:15:13;-0.40;90.60
36214;DHT22;37652;50.400;30.628;2023-01-16T03:19:52;-0.40;90.60
36214;DHT22;37652;50.400;30.628;2023-01-16T03:24:19;-0.40;90.60
36214;DHT22;37652;50.400;30.628;2023-01-16T03:26:36;-0.40;90.60
36214;DHT22;37652;50.400;30.628;2023-01-16T03:35:28;-0.30;90.60
36214;DHT22;37652;50.400;30.628;2023-01-16T03:39:39;-0.30;90.60
36214;DHT22;37652;50.400;30.628;2023-01-16T03:41:43;-0.30;90.60
36214;DHT22;37652;50.400;30.628;2023-01-16T03:43:50;-0.30;90.60
36214;DHT22;37652;50.400;30.628;2023-01-16T03:48:44;-0.30;90.60
36214;DHT22;37652;50.400;30.628;2023-01-16T03:51:07;-0.30;90.50
36214;DHT22;37652;50.400;30.628;2023-01-16T03:53:09;-0.30;90.60
36214;DHT22;37652;50.400;30.628;2023-01-16T03:55:39;-0.30;90.60
36214;DHT22;37652;50.400;30.628;2023-01-16T03:57:50;-0.30;90.60
36214;DHT22;37652;50.400;30.628;2023-01-16T03:59:53;-0.20;90.50
36214;DHT22;37652;50.400;30.628;2023-01-16T04:02:10;-0.20;90.40
36214;DHT22;37652;50.400;30.628;2023-01-16T04:04:46;-0.20;90.60
36214;DHT22;37652;50.400;30.628;2023-01-16T04:06:59;-0.20;90.50
36214;DHT22;37652;50.400;30.628;2023-01-16T04:09:05;-0.20;90.50
36214;DHT22;37652;50.400;30.628;2023-01-16T04:11:08;-0.20;90.50
36214;DHT22;37652;50.400;30.628;2023-01-16T04:13:13;-0.20;90.50
36214;DHT22;37652;50.400;30.628;2023-01-16T04:15:16;-0.20;90.50
36214;DHT22;37652;50.400;30.628;2023-01-16T04:17:18;-0.10;90.50
36214;DHT22;37652;50.400;30.628;2023-01-16T04:19:20;-0.10;90.50
36214;DHT22;37652;50.400;30.628;2023-01-16T04:21:26;-0.10;90.40
36214;DHT22;37652;50.400;30.628;2023-01-16T04:23:27;-0.10;90.40
36214;DHT22;37652;50.400;30.628;2023-01-16T04:27:29;-0.10;90.20
36214;DHT22;37652;50.400;30.628;2023-01-16T04:29:30;-0.10;90.40
36214;DHT22;37652;50.400;30.628;2023-01-16T04:31:31;-0.10;90.40
36214;DHT22;37652;50.400;30.628;2023-01-16T04:33:31;-0.10;90.40
36214;DHT22;37652;50.400;30.628;2023-01-16T04:35:33;-0.10;90.40
36214;DHT22;37652;50.400;30.628;2023-01-16T04:37:33;-0.10;90.40
36214;DHT22;37652;50.400;30.628;2023-01-16T04:39:34;0.00;90.40
36214;DHT22;37652;50.400;30.628;2023-01-16T04:41:35;-0.10;90.40
36214;DHT22;37652;50.400;30.628;2023-01-16T04:43:36;0.00;90.40
36214;DHT22;37652;50.400;30.628;2023-01-16T04:45:36;0.00;90.40
36214;DHT22;37652;50.400;30.628;2023-01-16T04:47:39;0.00;90.40
36214;DHT22;37652;50.400;30.628;2023-01-16T04:49:40;0.00;90.40
36214;DHT22;37652;50.400;30.628;2023-01-16T04:51:41;0.00;90.40
36214;DHT22;37652;50.400;30.628;2023-01-16T04:53:42;0.00;90.40
36214;DHT22;37652;50.400;30.628;2023-01-16T04:55:43;0.00;90.40
36214;DHT22;37652;50.400;30.628;2023-01-16T04:57:43;0.00;90.40
36214;DHT22;37652;50.400;30.628;2023-01-16T04:59:44;0.00;90.40
36214;DHT22;37652;50.400;30.628;2023-01-16T05:01:45;0.00;90.40
36214;DHT22;37652;50.400;30.628;2023-01-16T05:03:46;0.00;90.30
36214;DHT22;37652;50.400;30.628;2023-01-16T05:07:48;0.10;90.20
36214;DHT22;37652;50.400;30.628;2023-01-16T05:10:09;0.10;90.40
36214;DHT22;37652;50.400;30.628;2023-01-16T05:12:10;0.10;90.30
36214;DHT22;37652;50.400;30.628;2023-01-16T05:14:11;0.10;90.30
36214;DHT22;37652;50.400;30.628;2023-01-16T05:16:11;0.10;90.30
36214;DHT22;37652;50.400;30.628;2023-01-16T05:18:12;0.10;90.30
36214;DHT22;37652;50.400;30.628;2023-01-16T05:20:13;0.10;90.30
36214;DHT22;37652;50.400;30.628;2023-01-16T05:22:14;0.10;90.30
36214;DHT22;37652;50.400;30.628;2023-01-16T05:24:15;0.10;90.30
36214;DHT22;37652;50.400;30.628;2023-01-16T05:26:15;0.10;90.30
36214;DHT22;37652;50.400;30.628;2023-01-16T05:28:16;0.10;90.30
36214;DHT22;37652;50.400;30.628;2023-01-16T05:30:17;0.10;90.40
36214;DHT22;37652;50.400;30.628;2023-01-16T05:32:18;0.10;90.40
36214;DHT22;37652;50.400;30.628;2023-01-16T05:34:18;0.10;90.30
36214;DHT22;37652;50.400;30.628;2023-01-16T05:36:19;0.10;90.40
36214;DHT22;37652;50.400;30.628;2023-01-16T05:38:20;0.10;90.40
36214;DHT22;37652;50.400;30.628;2023-01-16T05:40:21;0.10;90.30
36214;DHT22;37652;50.400;30.628;2023-01-16T05:42:21;0.10;90.40
36214;DHT22;37652;50.400;30.628;2023-01-16T05:44:23;0.10;90.40
36214;DHT22;37652;50.400;30.628;2023-01-16T05:46:27;0.10;90.40
36214;DHT22;37652;50.400;30.628;2023-01-16T05:48:27;0.00;90.30
36214;DHT22;37652;50.400;30.628;2023-01-16T05:50:29;0.10;90.40
36214;DHT22;37652;50.400;30.628;2023-01-16T05:52:30;0.20;90.40
36214;DHT22;37652;50.400;30.628;2023-01-16T05:54:30;0.20;90.40
36214;DHT22;37652;50.400;30.628;2023-01-16T05:56:31;0.10;90.40
36214;DHT22;37652;50.400;30.628;2023-01-16T05:58:32;0.10;90.40
36214;DHT22;37652;50.400;30.628;2023-01-16T06:00:32;0.10;90.40
36214;DHT22;37652;50.400;30.628;2023-01-16T06:02:33;0.20;90.50
36214;DHT22;37652;50.400;30.628;2023-01-16T06:04:34;0.20;90.50
36214;DHT22;37652;50.400;30.628;2023-01-16T06:06:37;0.20;90.50
36214;DHT22;37652;50.400;30.628;2023-01-16T06:08:38;0.20;90.70
36214;DHT22;37652;50.400;30.628;2023-01-16T06:10:38;0.20;90.50
36214;DHT22;37652;50.400;30.628;2023-01-16T06:12:39;0.20;90.60
36214;DHT22;37652;50.400;30.628;2023-01-16T06:14:40;0.20;90.60
36214;DHT22;37652;50.400;30.628;2023-01-16T06:16:41;0.20;90.70
36214;DHT22;37652;50.400;30.628;2023-01-16T06:18:42;0.10;90.60
36214;DHT22;37652;50.400;30.628;2023-01-16T06:20:43;0.20;90.70
36214;DHT22;37652;50.400;30.628;2023-01-16T06:22:44;0.20;90.70
36214;DHT22;37652;50.400;30.628;2023-01-16T06:24:45;0.20;90.70
36214;DHT22;37652;50.400;30.628;2023-01-16T06:28:46;0.20;90.60
36214;DHT22;37652;50.400;30.628;2023-01-16T06:30:51;0.20;90.90
36214;DHT22;37652;50.400;30.628;2023-01-16T06:32:52;0.20;90.90
36214;DHT22;37652;50.400;30.628;2023-01-16T06:34:54;0.20;90.90
36214;DHT22;37652;50.400;30.628;2023-01-16T06:38:55;0.20;90.70
36214;DHT22;37652;50.400;30.628;2023-01-16T06:40:56;0.20;90.90
36214;DHT22;37652;50.400;30.628;2023-01-16T06:42:57;0.20;90.90
36214;DHT22;37652;50.400;30.628;2023-01-16T06:44:57;0.20;90.90
36214;DHT22;37652;50.400;30.628;2023-01-16T06:46:58;0.20;91.50
36214;DHT22;37652;50.400;30.628;2023-01-16T06:48:59;0.20;90.90
36214;DHT22;37652;50.400;30.628;2023-01-16T06:51:00;0.30;91.00
36214;DHT22;37652;50.400;30.628;2023-01-16T06:53:01;0.30;91.00
36214;DHT22;37652;50.400;30.628;2023-01-16T06:55:02;0.30;91.00
36214;DHT22;37652;50.400;30.628;2023-01-16T06:57:02;0.20;91.60
36214;DHT22;37652;50.400;30.628;2023-01-16T06:59:03;0.30;91.00
36214;DHT22;37652;50.400;30.628;2023-01-16T07:01:05;0.30;91.00
36214;DHT22;37652;50.400;30.628;2023-01-16T07:03:06;0.40;91.00
36214;DHT22;37652;50.400;30.628;2023-01-16T07:05:10;0.40;91.00
36214;DHT22;37652;50.400;30.628;2023-01-16T07:07:10;0.20;91.60
36214;DHT22;37652;50.400;30.628;2023-01-16T07:09:11;0.40;91.00
36214;DHT22;37652;50.400;30.628;2023-01-16T07:11:12;0.40;91.00
36214;DHT22;37652;50.400;30.628;2023-01-16T07:13:13;0.40;91.00
36214;DHT22;37652;50.400;30.628;2023-01-16T07:15:14;0.40;91.00
36214;DHT22;37652;50.400;30.628;2023-01-16T07:19:53;0.50;90.80
36214;DHT22;37652;50.400;30.628;2023-01-16T07:22:13;0.50;91.80
36214;DHT22;37652;50.400;30.628;2023-01-16T07:24:36;0.50;91.00
36214;DHT22;37652;50.400;30.628;2023-01-16T07:26:40;0.50;91.00
36214;DHT22;37652;50.400;30.628;2023-01-16T07:28:42;0.50;91.00
36214;DHT22;37652;50.400;30.628;2023-01-16T07:30:45;0.50;91.00
36214;DHT22;37652;50.400;30.628;2023-01-16T07:32:47;0.50;91.00
36214;DHT22;37652;50.400;30.628;2023-01-16T07:34:48;0.50;91.00
36214;DHT22;37652;50.400;30.628;2023-01-16T07:36:48;0.60;91.00
36214;DHT22;37652;50.400;30.628;2023-01-16T07:38:49;0.60;91.00
36214;DHT22;37652;50.400;30.628;2023-01-16T07:40:50;0.60;91.10
36214;DHT22;37652;50.400;30.628;2023-01-16T07:42:51;0.60;91.10
36214;DHT22;37652;50.400;30.628;2023-01-16T07:44:52;0.60;91.10
36214;DHT22;37652;50.400;30.628;2023-01-16T07:46:53;0.60;91.10
36214;DHT22;37652;50.400;30.628;2023-01-16T07:48:53;0.60;91.10
36214;DHT22;37652;50.400;30.628;2023-01-16T07:50:56;0.60;91.20
36214;DHT22;37652;50.400;30.628;2023-01-16T07:52:57;0.60;91.20
36214;DHT22;37652;50.400;30.628;2023-01-16T07:54:58;0.60;91.20
36214;DHT22;37652;50.400;30.628;2023-01-16T07:56:59;0.30;91.60
36214;DHT22;37652;50.400;30.628;2023-01-16T07:59:00;0.60;91.20
36214;DHT22;37652;50.400;30.628;2023-01-16T08:01:00;0.60;91.20
36214;DHT22;37652;50.400;30.628;2023-01-16T08:03:01;0.60;91.20
36214;DHT22;37652;50.400;30.628;2023-01-16T08:05:02;0.60;91.20
36214;DHT22;37652;50.400;30.628;2023-01-16T08:07:03;1.00;91.80
36214;DHT22;37652;50.400;30.628;2023-01-16T08:09:03;0.60;91.20
36214;DHT22;37652;50.400;30.628;2023-01-16T08:11:04;0.60;91.20
36214;DHT22;37652;50.400;30.628;2023-01-16T08:13:25;0.60;91.20
36214;DHT22;37652;50.400;30.628;2023-01-16T08:15:26;0.60;91.20
36214;DHT22;37652;50.400;30.628;2023-01-16T08:17:26;0.60;91.20
36214;DHT22;37652;50.400;30.628;2023-01-16T08:19:27;0.60;91.20
36214;DHT22;37652;50.400;30.628;2023-01-16T08:21:28;0.60;91.20
36214;DHT22;37652;50.400;30.628;2023-01-16T08:23:29;0.60;91.20
36214;DHT22;37652;50.400;30.628;2023-01-16T08:25:29;0.60;91.20
36214;DHT22;37652;50.400;30.628;2023-01-16T08:27:30;0.70;91.20
36214;DHT22;37652;50.400;30.628;2023-01-16T08:29:31;0.60;91.20
36214;DHT22;37652;50.400;30.628;2023-01-16T08:31:32;0.70;91.30
36214;DHT22;37652;50.400;30.628;2023-01-16T08:33:34;0.70;91.20
36214;DHT22;37652;50.400;30.628;2023-01-16T08:35:35;0.70;91.20
36214;DHT22;37652;50.400;30.628;2023-01-16T08:37:36;0.60;91.20
36214;DHT22;37652;50.400;30.628;2023-01-16T08:39:36;0.70;91.20
36214;DHT22;37652;50.400;30.628;2023-01-16T08:41:38;0.70;91.20
36214;DHT22;37652;50.400;30.628;2023-01-16T08:43:57;0.70;91.20
36214;DHT22;37652;50.400;30.628;2023-01-16T08:46:21;0.70;91.30
36214;DHT22;37652;50.400;30.628;2023-01-16T08:48:41;0.70;91.20
36214;DHT22;37652;50.400;30.628;2023-01-16T08:51:00;0.70;91.30
36214;DHT22;37652;50.400;30.628;2023-01-16T08:53:19;0.80;91.20
36214;DHT22;37652;50.400;30.628;2023-01-16T08:55:20;0.80;91.30
36214;DHT22;37652;50.400;30.628;2023-01-16T08:57:21;0.80;91.20
36214;DHT22;37652;50.400;30.628;2023-01-16T08:59:22;0.80;91.20
36214;DHT22;37652;50.400;30.628;2023-01-16T09:01:23;0.80;91.20
36214;DHT22;37652;50.400;30.628;2023-01-16T09:03:24;0.80;91.20
36214;DHT22;37652;50.400;30.628;2023-01-16T09:05:25;0.80;91.20
36214;DHT22;37652;50.400;30.628;2023-01-16T09:07:26;0.80;91.20
36214;DHT22;37652;50.400;30.628;2023-01-16T09:09:27;0.80;91.30
36214;DHT22;37652;50.400;30.628;2023-01-16T09:11:30;0.80;91.20
36214;DHT22;37652;50.400;30.628;2023-01-16T09:13:50;0.80;91.20
36214;DHT22;37652;50.400;30.628;2023-01-16T09:15:50;0.80;91.20
36214;DHT22;37652;50.400;30.628;2023-01-16T09:17:51;0.80;91.20
36214;DHT22;37652;50.400;30.628;2023-01-16T09:19:52;0.90;91.30
36214;DHT22;37652;50.400;30.628;2023-01-16T09:21:53;0.80;91.30
36214;DHT22;37652;50.400;30.628;2023-01-16T09:23:54;0.90;91.30
36214;DHT22;37652;50.400;30.628;2023-01-16T09:25:54;0.90;91.30
36214;DHT22;37652;50.400;30.628;2023-01-16T09:27:55;0.90;91.30
36214;DHT22;37652;50.400;30.628;2023-01-16T09:29:56;0.90;91.40
36214;DHT22;37652;50.400;30.628;2023-01-16T09:31:57;0.90;91.80
36214;DHT22;37652;50.400;30.628;2023-01-16T09:33:58;0.90;91.40
36214;DHT22;37652;50.400;30.628;2023-01-16T09:35:58;0.90;91.40
36214;DHT22;37652;50.400;30.628;2023-01-16T09:40:00;1.00;91.20
36214;DHT22;37652;50.400;30.628;2023-01-16T09:44:21;1.00;91.30
36214;DHT22;37652;50.400;30.628;2023-01-16T09:46:25;1.00;91.40
36214;DHT22;37652;50.400;30.628;2023-01-16T09:48:32;1.00;91.40
36214;DHT22;37652;50.400;30.628;2023-01-16T09:50:46;1.10;91.40
36214;DHT22;37652;50.400;30.628;2023-01-16T09:52:49;1.10;91.40
36214;DHT22;37652;50.400;30.628;2023-01-16T09:55:26;1.10;91.40
36214;DHT22;37652;50.400;30.628;2023-01-16T09:57:46;1.10;91.50
36214;DHT22;37652;50.400;30.628;2023-01-16T10:00:07;1.10;91.50
36214;DHT22;37652;50.400;30.628;2023-01-16T10:04:29;1.10;91.60
36214;DHT22;37652;50.400;30.628;2023-01-16T10:06:42;1.20;91.60
36214;DHT22;37652;50.400;30.628;2023-01-16T10:23:07;1.30;91.70
36214;DHT22;37652;50.400;30.628;2023-01-16T10:30:07;1.30;91.70
36214;DHT22;37652;50.400;30.628;2023-01-16T10:32:21;1.50;92.30
36214;DHT22;37652;50.400;30.628;2023-01-16T10:34:39;1.30;91.70
36214;DHT22;37652;50.400;30.628;2023-01-16T10:36:47;1.40;91.80
36214;DHT22;37652;50.400;30.628;2023-01-16T10:38:51;1.40;91.80
36214;DHT22;37652;50.400;30.628;2023-01-16T10:40:56;1.40;91.80
36214;DHT22;37652;50.400;30.628;2023-01-16T10:43:09;1.40;91.80
36214;DHT22;37652;50.400;30.628;2023-01-16T10:45:33;1.40;91.80
36214;DHT22;37652;50.400;30.628;2023-01-16T10:47:53;1.40;91.80
36214;DHT22;37652;50.400;30.628;2023-01-16T10:50:14;1.40;91.80
36214;DHT22;37652;50.400;30.628;2023-01-16T10:52:15;1.40;91.80
36214;DHT22;37652;50.400;30.628;2023-01-16T10:54:15;1.40;91.90
36214;DHT22;37652;50.400;30.628;2023-01-16T10:56:16;1.40;91.90
36214;DHT22;37652;50.400;30.628;2023-01-16T10:58:27;1.40;91.80
36214;DHT22;37652;50.400;30.628;2023-01-16T11:00:33;1.40;91.80
36214;DHT22;37652;50.400;30.628;2023-01-16T11:02:40;1.50;91.90
36214;DHT22;37652;50.400;30.628;2023-01-16T11:04:41;1.50;91.90
36214;DHT22;37652;50.400;30.628;2023-01-16T11:06:42;1.50;91.90
36214;DHT22;37652;50.400;30.628;2023-01-16T11:09:32;1.50;91.90
36214;DHT22;37652;50.400;30.628;2023-01-16T11:11:11;1.50;91.80
36214;DHT22;37652;50.400;30.628;2023-01-16T11:13:32;1.40;91.90
36214;DHT22;37652;50.400;30.628;2023-01-16T11:16:02;1.50;91.90
36214;DHT22;37652;50.400;30.628;2023-01-16T11:18:28;1.50;92.00
36214;DHT22;37652;50.400;30.628;2023-01-16T11:20:32;1.50;92.00
36214;DHT22;37652;50.400;30.628;2023-01-16T11:22:38;1.50;92.00
36214;DHT22;37652;50.400;30.628;2023-01-16T11:24:40;1.60;92.10
36214;DHT22;37652;50.400;30.628;2023-01-16T11:26:46;1.50;92.00
36214;DHT22;37652;50.400;30.628;2023-01-16T11:28:48;1.50;92.00
36214;DHT22;37652;50.400;30.628;2023-01-16T11:30:53;1.50;92.00
36214;DHT22;37652;50.400;30.628;2023-01-16T11:32:56;1.50;92.00
36214;DHT22;37652;50.400;30.628;2023-01-16T11:34:57;1.50;92.00
36214;DHT22;37652;50.400;30.628;2023-01-16T11:37:01;1.70;92.50
36214;DHT22;37652;50.400;30.628;2023-01-16T11:39:05;1.50;92.00
36214;DHT22;37652;50.400;30.628;2023-01-16T11:41:07;1.60;92.10
36214;DHT22;37652;50.400;30.628;2023-01-16T11:43:16;1.60;92.10
36214;DHT22;37652;50.400;30.628;2023-01-16T11:45:42;1.60;91.90
36214;DHT22;37652;50.400;30.628;2023-01-16T11:48:05;1.60;92.10
36214;DHT22;37652;50.400;30.628;2023-01-16T11:50:33;1.60;92.10
36214;DHT22;37652;50.400;30.628;2023-01-16T11:54:37;1.60;91.90
36214;DHT22;37652;50.400;30.628;2023-01-16T11:56:49;1.60;92.10
36214;DHT22;37652;50.400;30.628;2023-01-16T12:01:29;1.60;91.90
36214;DHT22;37652;50.400;30.628;2023-01-16T12:04:01;1.60;92.10
36214;DHT22;37652;50.400;30.628;2023-01-16T12:06:45;1.60;92.10
36214;DHT22;37652;50.400;30.628;2023-01-16T12:13:10;1.70;92.10
36214;DHT22;37652;50.400;30.628;2023-01-16T12:20:24;1.70;92.20
36214;DHT22;37652;50.400;30.628;2023-01-16T12:27:34;1.60;92.10
36214;DHT22;37652;50.400;30.628;2023-01-16T12:32:11;1.50;92.70
36214;DHT22;37652;50.400;30.628;2023-01-16T12:39:12;1.70;92.20
36214;DHT22;37652;50.400;30.628;2023-01-16T12:41:35;1.70;92.20
36214;DHT22;37652;50.400;30.628;2023-01-16T12:46:15;1.80;92.30
36214;DHT22;37652;50.400;30.628;2023-01-16T12:59:49;1.80;92.30
36214;DHT22;37652;50.400;30.628;2023-01-16T13:01:58;1.80;92.20
